createdAt,value
2019-05-06T00:01:54.256Z,5.40
2019-05-06T00:06:57.687Z,8.97
2019-05-06T00:12:01.221Z,7.73
2019-05-06T00:17:05.701Z,7.73
2019-05-06T00:22:09.067Z,7.43
2019-05-06T00:27:14.260Z,7.73
2019-05-06T00:32:17.796Z,6.30
2019-05-06T00:37:21.319Z,9.37
2019-05-06T00:42:26.251Z,7.53
2019-05-06T00:47:29.815Z,6.30
2019-05-06T00:52:34.114Z,7.03
2019-05-06T00:57:44.105Z,6.77
2019-05-06T01:02:47.887Z,6.00
2019-05-06T01:07:51.183Z,7.40
2019-05-06T01:13:04.213Z,8.60
2019-05-06T01:18:07.587Z,10.20
2019-05-06T01:23:10.882Z,8.43
2019-05-06T01:28:14.159Z,6.93
2019-05-06T01:33:17.426Z,7.00
2019-05-06T01:38:24.325Z,9.37
2019-05-06T01:43:38.203Z,12.00
2019-05-06T01:48:48.059Z,11.50
2019-05-06T01:53:54.181Z,8.13
2019-05-06T01:58:57.249Z,6.80
2019-05-06T02:04:00.524Z,9.07
2019-05-06T02:09:07.130Z,9.80
2019-05-06T02:14:10.423Z,7.87
2019-05-06T02:19:14.786Z,9.67
2019-05-06T02:24:19.853Z,7.83
2019-05-06T02:29:31.367Z,7.30
2019-05-06T02:34:54.997Z,10.03
2019-05-06T02:40:04.059Z,10.23
2019-05-06T02:45:06.488Z,10.57
2019-05-06T02:50:14.413Z,7.73
2019-05-06T02:55:17.970Z,9.77
2019-05-06T03:00:23.846Z,11.23
2019-05-06T03:05:26.585Z,10.93
2019-05-06T03:10:32.779Z,9.20
2019-05-06T03:15:35.138Z,8.47
2019-05-06T03:20:43.908Z,8.90
2019-05-06T03:25:47.462Z,12.63
2019-05-06T03:30:55.858Z,8.83
2019-05-06T03:36:07.217Z,10.37
2019-05-06T03:41:03.049Z,10.37
2019-05-06T03:46:08.211Z,12.43
2019-05-06T03:51:13.533Z,9.47
2019-05-06T03:56:19.739Z,13.40
2019-05-06T04:01:23.962Z,14.10
2019-05-06T04:06:27.879Z,11.33
2019-05-06T04:11:35.872Z,8.57
2019-05-06T04:16:53.492Z,12.30
2019-05-06T04:22:03.660Z,14.90
2019-05-06T04:27:37.357Z,12.10
2019-05-06T04:32:43.462Z,16.20
2019-05-06T04:37:46.219Z,17.27
2019-05-06T04:42:52.528Z,14.17
2019-05-06T04:47:54.934Z,22.20
2019-05-06T04:53:05.406Z,12.40
2019-05-06T04:58:09.150Z,13.07
2019-05-06T05:03:14.060Z,15.20
2019-05-06T05:08:17.789Z,15.67
2019-05-06T05:13:25.677Z,15.70
2019-05-06T05:18:33.504Z,15.30
2019-05-06T05:23:37.084Z,15.60
2019-05-06T05:28:42.791Z,13.37
2019-05-06T05:33:45.756Z,13.73
2019-05-06T05:38:49.435Z,12.87
2019-05-06T05:44:02.400Z,11.03
2019-05-06T05:49:13.642Z,11.37
2019-05-06T05:54:16.938Z,16.83
2019-05-06T05:59:23.206Z,16.73
2019-05-06T06:04:26.008Z,13.73
2019-05-06T06:09:32.775Z,13.40
2019-05-06T06:14:40.503Z,13.93
2019-05-06T06:19:45.753Z,14.60
2019-05-06T06:24:49.026Z,15.67
2019-05-06T06:29:52.825Z,12.80
2019-05-06T06:35:08.372Z,13.23
2019-05-06T06:40:10.032Z,10.93
2019-05-06T06:45:14.216Z,14.33
2019-05-06T06:50:17.765Z,14.53
2019-05-06T06:55:22.525Z,10.27
2019-05-06T07:00:27.628Z,11.03
2019-05-06T07:05:33.243Z,15.53
2019-05-06T07:10:45.550Z,10.60
2019-05-06T07:15:49.077Z,13.73
2019-05-06T07:21:05.183Z,11.07
2019-05-06T07:26:12.002Z,11.53
2019-05-06T07:31:22.271Z,16.93
2019-05-06T07:36:22.689Z,13.83
2019-05-06T07:41:27.008Z,11.87
2019-05-06T07:46:37.812Z,10.37
2019-05-06T07:51:42.652Z,11.83
2019-05-06T07:56:46.186Z,12.17
2019-05-06T08:01:49.479Z,10.23
2019-05-06T08:06:52.743Z,15.00
2019-05-06T08:11:56.021Z,10.93
2019-05-06T08:17:03.767Z,9.70
2019-05-06T08:22:08.968Z,7.67
2019-05-06T08:27:12.492Z,11.43
2019-05-06T08:32:15.768Z,7.97
2019-05-06T08:37:24.099Z,9.57
2019-05-06T08:42:27.630Z,12.13
2019-05-06T08:47:32.864Z,8.90
2019-05-06T08:52:56.355Z,8.47
2019-05-06T08:57:59.626Z,8.43
2019-05-06T09:03:04.444Z,7.10
2019-05-06T09:08:08.155Z,6.47
2019-05-06T09:13:12.345Z,6.80
2019-05-06T09:18:15.619Z,6.07
2019-05-06T09:23:18.904Z,8.27
2019-05-06T09:28:26.951Z,8.00
2019-05-06T09:33:33.155Z,6.30
2019-05-06T09:38:36.489Z,6.17
2019-05-06T09:43:39.841Z,8.27
2019-05-06T09:49:03.416Z,5.37
2019-05-06T09:54:12.915Z,5.17
2019-05-06T09:59:17.090Z,4.90
2019-05-06T10:04:21.167Z,7.37
2019-05-06T10:09:25.084Z,6.17
2019-05-06T10:14:28.699Z,8.60
2019-05-06T10:19:32.178Z,5.37
2019-05-06T10:24:35.437Z,9.83
2019-05-06T10:29:40.420Z,6.90
2019-05-06T10:34:43.721Z,5.50
2019-05-06T10:39:52.190Z,5.23
2019-05-06T10:45:12.262Z,9.60
2019-05-06T10:50:15.669Z,6.87
2019-05-06T10:55:18.969Z,5.23
2019-05-06T11:00:23.269Z,7.73
2019-05-06T11:05:26.572Z,7.33
2019-05-06T11:10:38.038Z,6.50
2019-05-06T11:15:34.907Z,9.73
2019-05-06T11:20:43.529Z,8.33
2019-05-06T11:25:46.007Z,7.33
2019-05-06T11:30:52.981Z,7.77
2019-05-06T11:35:58.238Z,9.17
2019-05-06T11:41:01.547Z,10.00
2019-05-06T11:46:04.831Z,11.27
2019-05-06T11:51:12.722Z,12.70
2019-05-06T11:56:15.052Z,10.67
2019-05-06T12:01:19.995Z,12.13
2019-05-06T12:06:23.634Z,9.37
2019-05-06T12:11:26.931Z,10.03
2019-05-06T12:16:32.845Z,11.50
2019-05-06T12:21:35.291Z,10.80
2019-05-06T12:26:38.817Z,13.23
2019-05-06T12:31:42.367Z,17.57
2019-05-06T12:36:48.196Z,21.00
2019-05-06T12:42:09.323Z,24.20
2019-05-06T12:47:23.206Z,29.10
2019-05-06T12:52:26.494Z,22.43
2019-05-06T12:57:29.777Z,21.07
2019-05-06T13:02:33.074Z,19.33
2019-05-06T13:07:38.260Z,14.63
2019-05-06T13:12:43.507Z,15.50
2019-05-06T13:17:47.113Z,12.80
2019-05-06T13:22:55.024Z,12.30
2019-05-06T13:27:58.331Z,10.43
2019-05-06T13:33:21.807Z,10.47
2019-05-06T13:38:25.128Z,6.87
2019-05-06T13:43:33.181Z,7.97
2019-05-06T13:48:38.116Z,6.33
2019-05-06T13:53:45.710Z,7.27
2019-05-06T13:58:46.669Z,6.47
2019-05-06T14:03:52.265Z,8.70
2019-05-06T14:08:55.244Z,6.13
2019-05-06T14:13:58.788Z,5.53
2019-05-06T14:19:04.041Z,6.07
2019-05-06T14:24:07.083Z,7.27
2019-05-06T14:29:12.784Z,10.20
2019-05-06T14:34:17.701Z,9.07
2019-05-06T14:39:23.892Z,6.77
2019-05-06T14:44:27.305Z,7.73
2019-05-06T14:49:32.573Z,8.27
2019-05-06T14:54:37.865Z,8.60
2019-05-06T14:59:42.175Z,10.13
2019-05-06T15:04:45.729Z,10.70
2019-05-06T15:09:58.581Z,11.63
2019-05-06T15:14:54.282Z,9.00
2019-05-06T15:19:57.804Z,10.90
2019-05-06T15:25:02.388Z,7.60
2019-05-06T15:30:12.412Z,9.47
2019-05-06T15:35:17.472Z,12.07
2019-05-06T15:40:31.801Z,11.30
2019-05-06T15:45:26.886Z,9.60
2019-05-06T15:50:32.488Z,11.13
2019-05-06T15:55:35.186Z,10.30
2019-05-06T16:00:38.543Z,12.63
2019-05-06T16:05:43.659Z,10.10
2019-05-06T16:10:52.269Z,11.23
2019-05-06T16:15:53.219Z,8.70
2019-05-06T16:20:57.510Z,12.53
2019-05-06T16:26:03.029Z,12.07
2019-05-06T16:31:06.896Z,10.17
2019-05-06T16:36:10.430Z,12.37
2019-05-06T16:41:16.344Z,10.47
2019-05-06T16:46:19.213Z,11.57
2019-05-06T16:51:22.745Z,12.80
2019-05-06T16:56:33.485Z,10.73
2019-05-06T17:01:38.408Z,10.47
2019-05-06T17:06:43.576Z,10.47
2019-05-06T17:11:46.866Z,9.70
2019-05-06T17:16:52.528Z,13.83
2019-05-06T17:21:55.151Z,8.70
2019-05-06T17:26:58.427Z,8.23
2019-05-06T17:32:18.097Z,9.67
2019-05-06T17:37:37.711Z,8.53
2019-05-06T17:42:42.228Z,8.87
2019-05-06T17:47:47.320Z,8.30
2019-05-06T17:52:52.135Z,7.27
2019-05-06T17:57:55.599Z,20.87
2019-05-06T18:02:58.872Z,9.07
2019-05-06T18:08:02.898Z,9.70
2019-05-06T18:13:07.440Z,11.07
2019-05-06T18:18:12.837Z,7.60
2019-05-06T18:23:15.758Z,6.17
2019-05-06T18:28:19.352Z,9.70
2019-05-06T18:33:22.861Z,8.37
2019-05-06T18:38:26.397Z,7.10
2019-05-06T18:43:29.677Z,6.00
2019-05-06T18:48:35.264Z,7.20
2019-05-06T18:53:37.961Z,5.53
2019-05-06T18:58:42.875Z,6.83
2019-05-06T19:03:56.939Z,6.80
2019-05-06T19:09:04.770Z,7.07
2019-05-06T19:14:08.288Z,7.90
2019-05-06T19:19:12.399Z,8.17
2019-05-06T19:24:15.979Z,7.87
2019-05-06T19:29:20.003Z,6.57
2019-05-06T19:34:23.725Z,6.73
2019-05-06T19:39:27.311Z,7.47
2019-05-06T19:44:30.827Z,8.63
2019-05-06T19:49:34.998Z,8.53
2019-05-06T19:54:39.444Z,9.67
2019-05-06T19:59:42.718Z,9.70
2019-05-06T20:04:47.640Z,10.37
2019-05-06T20:10:08.635Z,7.63
2019-05-06T20:15:30.359Z,11.90
2019-05-06T20:20:35.286Z,11.57
2019-05-06T20:25:38.652Z,10.07
2019-05-06T20:30:42.366Z,13.17
2019-05-06T20:35:45.922Z,11.33
2019-05-06T20:40:49.208Z,9.77
2019-05-06T20:45:52.499Z,12.43
2019-05-06T20:50:55.780Z,11.50
2019-05-06T20:55:59.062Z,13.00
2019-05-06T21:01:03.047Z,11.43
2019-05-06T21:06:06.589Z,11.70
2019-05-06T21:11:25.050Z,14.30
2019-05-06T21:16:15.131Z,14.87
2019-05-06T21:21:18.425Z,18.07
2019-05-06T21:26:22.158Z,15.77
2019-05-06T21:31:25.411Z,15.43
2019-05-06T21:36:30.793Z,17.27
2019-05-06T21:41:34.330Z,17.10
2019-05-06T21:46:37.598Z,18.50
2019-05-06T21:51:42.536Z,19.07
2019-05-06T21:56:46.305Z,20.00
2019-05-06T22:01:51.912Z,18.13
2019-05-06T22:06:54.669Z,21.00
2019-05-06T22:11:57.953Z,21.03
2019-05-06T22:17:03.896Z,23.43
2019-05-06T22:22:09.672Z,21.63
2019-05-06T22:27:13.279Z,21.53
2019-05-06T22:32:16.806Z,22.33
2019-05-06T22:37:22.126Z,28.07
2019-05-06T22:42:25.750Z,25.13
2019-05-06T22:47:29.033Z,21.73
2019-05-06T22:52:32.613Z,25.53
2019-05-06T22:57:35.845Z,24.13
2019-05-06T23:02:43.661Z,23.73
2019-05-06T23:07:47.193Z,20.70
2019-05-06T23:12:52.286Z,22.63
2019-05-06T23:17:55.485Z,18.63
2019-05-06T23:22:59.009Z,18.93
2019-05-06T23:28:02.858Z,20.77
2019-05-06T23:33:06.491Z,19.33
2019-05-06T23:38:46.078Z,21.30
2019-05-06T23:44:25.772Z,17.00
2019-05-06T23:50:06.157Z,17.63
2019-05-06T23:55:45.902Z,18.53
